Time;durP1;ratioP1;P1;durP2;ratioP2;P2;SDS_P1;SDS_P2;PMS_P1;PMS_P2;Temp;Humidity;BMP_temperature;BMP_pressure;BME280_temperature;BME280_humidity;BME280_pressure;Samples;Min_cycle;Max_cycle;Signal;HPM_P1;HPM_P2
2024/03/13 00:01:26;;;;;;;28.37;15.37;;;6.30;99.90;;;;;;5112813;28;20197;-73
2024/03/13 00:04:17;;;;;;;29.13;14.90;;;6.30;99.90;;;;;;5112952;28;20693;-73
2024/03/13 00:07:05;;;;;;;29.33;15.47;;;6.20;99.90;;;;;;5097785;28;20198;-73
2024/03/13 00:09:54;;;;;;;25.23;14.73;;;6.20;99.90;;;;;;5098084;28;20641;-73
2024/03/13 00:12:42;;;;;;;28.53;14.90;;;6.20;99.90;;;;;;5098280;28;20207;-73
2024/03/13 00:15:42;;;;;;;28.03;15.07;;;6.20;99.90;;;;;;5097664;28;20785;-73
2024/03/13 00:18:49;;;;;;;24.20;14.17;;;6.20;99.90;;;;;;5097671;28;20338;-73
2024/03/13 00:21:40;;;;;;;30.23;14.53;;;6.20;99.90;;;;;;5097543;28;20199;-73
2024/03/13 00:24:28;;;;;;;26.43;15.17;;;6.20;99.90;;;;;;5113793;28;20638;-73
2024/03/13 00:27:16;;;;;;;29.27;15.60;;;6.20;99.90;;;;;;5098122;28;20272;-73
2024/03/13 00:30:10;;;;;;;29.77;15.10;;;6.20;99.90;;;;;;5113398;28;20195;-73
2024/03/13 00:32:57;;;;;;;24.73;14.43;;;6.20;99.90;;;;;;5097684;28;20192;-73
2024/03/13 00:35:57;;;;;;;26.00;14.43;;;6.20;99.90;;;;;;5111530;28;20234;-73
2024/03/13 00:38:48;;;;;;;26.73;14.70;;;6.20;99.90;;;;;;5097995;28;20205;-73
2024/03/13 00:42:02;;;;;;;25.67;13.80;;;6.30;99.90;;;;;;5111965;28;20199;-73
2024/03/13 00:45:10;;;;;;;26.80;14.07;;;6.30;99.90;;;;;;5098504;28;20199;-73
2024/03/13 00:48:21;;;;;;;25.53;13.57;;;6.30;99.90;;;;;;5098325;28;20335;-73
2024/03/13 00:51:40;;;;;;;26.97;14.10;;;6.20;99.90;;;;;;5098179;28;20203;-73
2024/03/13 00:54:50;;;;;;;26.47;14.30;;;6.20;99.90;;;;;;5111168;28;20782;-72
2024/03/13 00:58:12;;;;;;;26.00;13.93;;;6.30;99.90;;;;;;5096416;28;20313;-73
2024/03/13 01:05:01;;;;;;;27.03;15.07;;;6.30;99.90;;;;;;5110689;28;20219;-72
2024/03/13 01:08:26;;;;;;;27.27;14.33;;;6.30;99.90;;;;;;5111773;28;20275;-72
2024/03/13 01:11:52;;;;;;;28.30;15.17;;;6.30;99.90;;;;;;5097846;28;20563;-73
2024/03/13 01:14:59;;;;;;;25.27;14.33;;;6.20;99.90;;;;;;5110866;28;20669;-73
2024/03/13 01:18:16;;;;;;;27.67;14.43;;;6.20;99.90;;;;;;5097414;28;20220;-73
2024/03/13 01:21:04;;;;;;;25.80;14.23;;;6.20;99.90;;;;;;5097828;28;20286;-72
2024/03/13 01:23:52;;;;;;;26.50;14.23;;;6.10;99.90;;;;;;5096616;28;20327;-73
2024/03/13 01:26:39;;;;;;;28.40;14.83;;;6.10;99.90;;;;;;5096871;28;20286;-73
2024/03/13 01:29:27;;;;;;;25.80;13.90;;;6.10;99.90;;;;;;5110866;28;20222;-72
2024/03/13 01:32:15;;;;;;;23.67;13.17;;;6.10;99.90;;;;;;5110642;28;20198;-73
2024/03/13 01:35:02;;;;;;;24.73;13.90;;;6.10;99.90;;;;;;5110318;28;20233;-73
2024/03/13 01:37:58;;;;;;;25.60;13.67;;;6.00;99.90;;;;;;5096349;28;20214;-73
2024/03/13 01:56:58;;;;;;;29.73;15.90;;;5.90;99.90;;;;;;5010400;28;20703;-74
2024/03/13 02:02:51;;;;;;;32.00;16.50;;;5.90;99.90;;;;;;5013753;28;20197;-73
2024/03/13 02:05:42;;;;;;;29.87;15.93;;;5.90;99.90;;;;;;5013696;28;20730;-72
2024/03/13 02:08:30;;;;;;;33.10;16.73;;;5.90;99.90;;;;;;5013160;28;20638;-72
2024/03/13 02:11:17;;;;;;;34.20;16.37;;;5.90;99.90;;;;;;4999773;28;20229;-73
2024/03/13 02:14:05;;;;;;;32.17;17.20;;;5.90;99.90;;;;;;5013008;28;20520;-73
2024/03/13 02:16:52;;;;;;;32.03;16.93;;;5.90;99.90;;;;;;5013023;28;20227;-72
2024/03/13 02:19:40;;;;;;;35.67;18.13;;;5.90;99.90;;;;;;5013517;28;20219;-72
2024/03/13 02:22:28;;;;;;;37.00;18.37;;;5.90;99.90;;;;;;5115500;28;20192;-73
2024/03/13 02:25:15;;;;;;;35.37;18.30;;;5.90;99.90;;;;;;5114155;28;20249;-73
2024/03/13 02:28:03;;;;;;;35.67;17.90;;;5.90;99.90;;;;;;5113806;28;21087;-73
2024/03/13 02:30:51;;;;;;;31.80;17.77;;;5.90;99.90;;;;;;5112820;28;20201;-73
2024/03/13 02:33:38;;;;;;;37.10;18.57;;;5.90;99.90;;;;;;5113689;28;20207;-72
2024/03/13 02:36:26;;;;;;;36.80;18.90;;;5.90;99.90;;;;;;5100382;28;20227;-73
2024/03/13 02:39:18;;;;;;;34.17;18.10;;;5.80;99.90;;;;;;5113716;28;20278;-72
2024/03/13 02:42:07;;;;;;;36.77;18.23;;;5.80;99.90;;;;;;5113701;28;20200;-72
2024/03/13 02:44:55;;;;;;;32.57;17.00;;;5.80;99.90;;;;;;5099243;28;20200;-73
2024/03/13 02:47:43;;;;;;;33.87;17.07;;;5.80;99.90;;;;;;5100020;28;20655;-73
2024/03/13 02:50:31;;;;;;;34.30;17.17;;;5.80;99.90;;;;;;5113402;28;20247;-73
2024/03/13 02:53:19;;;;;;;34.13;16.13;;;5.80;99.90;;;;;;5100049;28;20659;-73
2024/03/13 02:56:10;;;;;;;33.67;16.47;;;5.80;99.90;;;;;;5098754;28;20211;-73
2024/03/13 02:58:57;;;;;;;28.83;16.20;;;5.80;99.90;;;;;;5099168;28;20731;-73
2024/03/13 03:01:45;;;;;;;33.10;16.87;;;5.80;99.90;;;;;;5113521;28;20186;-73
2024/03/13 03:04:32;;;;;;;36.33;16.67;;;5.80;99.90;;;;;;5113065;28;20733;-73
2024/03/13 03:07:19;;;;;;;32.73;16.80;;;5.80;99.90;;;;;;5098892;28;20230;-73
2024/03/13 03:10:07;;;;;;;31.53;16.00;;;5.90;99.90;;;;;;5112846;28;20190;-72
2024/03/13 03:13:04;;;;;;;32.70;17.13;;;5.90;99.90;;;;;;5113383;28;20191;-72
2024/03/13 03:15:52;;;;;;;32.27;16.53;;;5.90;99.90;;;;;;5113929;28;20199;-72
2024/03/13 03:18:39;;;;;;;36.10;17.47;;;5.80;99.90;;;;;;5113322;28;20233;-72
2024/03/13 03:21:27;;;;;;;33.93;16.80;;;5.80;99.90;;;;;;5113117;28;20312;-72
2024/03/13 03:24:14;;;;;;;32.47;16.50;;;5.80;99.90;;;;;;5113315;28;20198;-72
2024/03/13 03:27:02;;;;;;;28.60;16.30;;;5.80;99.90;;;;;;5098772;28;20799;-72
2024/03/13 03:29:50;;;;;;;35.30;17.83;;;5.80;99.90;;;;;;5085738;28;20231;-72
2024/03/13 03:32:38;;;;;;;31.63;16.33;;;5.80;99.90;;;;;;5114923;28;20274;-72
2024/03/13 03:35:27;;;;;;;35.97;17.70;;;5.80;99.90;;;;;;5112558;28;20278;-73
2024/03/13 03:38:15;;;;;;;34.17;17.17;;;5.80;99.90;;;;;;5113154;28;20300;-72
2024/03/13 03:41:02;;;;;;;34.90;17.23;;;5.80;99.90;;;;;;5113042;28;20289;-72
2024/03/13 03:43:50;;;;;;;37.37;18.07;;;5.80;99.90;;;;;;5112157;28;20671;-72
2024/03/13 03:46:40;;;;;;;36.63;17.90;;;5.80;99.90;;;;;;5112459;28;20629;-72
2024/03/13 03:49:27;;;;;;;37.00;16.90;;;5.80;99.90;;;;;;5098617;28;20207;-73
2024/03/13 03:52:15;;;;;;;32.33;16.50;;;5.80;99.90;;;;;;5112972;28;20199;-72
2024/03/13 03:55:03;;;;;;;34.80;17.07;;;5.80;99.90;;;;;;5112979;28;20196;-72
2024/03/13 03:57:50;;;;;;;32.77;16.67;;;5.80;99.90;;;;;;5112663;28;20703;-72
2024/03/13 04:00:38;;;;;;;34.97;17.67;;;5.80;99.90;;;;;;5099930;28;20656;-72
2024/03/13 04:03:25;;;;;;;33.43;16.77;;;5.80;99.90;;;;;;5112065;28;20233;-72
2024/03/13 04:06:17;;;;;;;30.17;16.77;;;5.80;99.90;;;;;;5111744;28;20199;-73
2024/03/13 04:09:14;;;;;;;32.57;16.80;;;5.80;99.90;;;;;;5098627;28;20215;-73
2024/03/13 04:12:02;;;;;;;32.80;15.77;;;5.70;99.90;;;;;;5111582;28;20207;-73
2024/03/13 04:14:50;;;;;;;32.77;16.47;;;5.60;99.90;;;;;;5097804;28;20552;-72
2024/03/13 04:17:39;;;;;;;29.07;15.03;;;5.60;99.90;;;;;;5111722;28;20269;-72
2024/03/13 04:20:26;;;;;;;28.27;14.10;;;5.70;99.90;;;;;;5111539;28;20218;-72
2024/03/13 04:23:13;;;;;;;28.60;13.97;;;5.60;99.90;;;;;;5111291;28;20645;-72
2024/03/13 04:26:04;;;;;;;23.83;13.00;;;5.60;99.90;;;;;;5097655;28;20213;-72
2024/03/13 04:28:52;;;;;;;27.80;13.47;;;5.50;99.90;;;;;;5111317;28;20198;-72
2024/03/13 04:31:40;;;;;;;28.57;13.77;;;5.50;99.90;;;;;;5111242;28;20203;-72
2024/03/13 04:34:29;;;;;;;24.17;12.40;;;5.50;99.90;;;;;;5111433;28;20221;-72
2024/03/13 04:37:17;;;;;;;26.87;12.70;;;5.50;99.90;;;;;;5111478;28;20228;-72
2024/03/13 04:40:07;;;;;;;24.87;12.87;;;5.50;99.90;;;;;;5111907;28;20207;-72
2024/03/13 04:42:57;;;;;;;24.27;12.13;;;5.50;99.90;;;;;;5111746;28;20647;-72
2024/03/13 04:45:45;;;;;;;26.00;13.17;;;5.50;99.90;;;;;;5111731;28;20200;-73
2024/03/13 04:48:32;;;;;;;26.00;12.77;;;5.50;99.90;;;;;;5097601;28;20197;-73
2024/03/13 04:51:20;;;;;;;25.10;13.07;;;5.60;99.90;;;;;;5112696;28;20196;-73
2024/03/13 04:54:08;;;;;;;28.23;12.93;;;5.60;99.90;;;;;;5111083;28;20200;-73
2024/03/13 04:56:55;;;;;;;23.87;12.63;;;5.60;99.90;;;;;;5110766;28;20234;-73
2024/03/13 04:59:43;;;;;;;28.70;13.37;;;5.60;99.90;;;;;;5111327;28;20652;-72
2024/03/13 05:02:30;;;;;;;28.03;13.63;;;5.50;99.90;;;;;;5110852;28;20271;-72
2024/03/13 05:05:18;;;;;;;26.73;13.20;;;5.50;99.90;;;;;;5111154;28;20220;-72
2024/03/13 05:08:05;;;;;;;24.23;13.53;;;5.60;99.90;;;;;;5111327;28;20207;-72
2024/03/13 05:10:56;;;;;;;34.10;14.30;;;5.60;99.90;;;;;;5097253;28;20201;-73
2024/03/13 05:13:46;;;;;;;29.53;14.10;;;5.60;99.90;;;;;;5110405;28;20600;-73
2024/03/13 05:16:34;;;;;;;25.53;12.97;;;5.60;99.90;;;;;;5098229;28;20198;-72
2024/03/13 05:19:22;;;;;;;27.67;13.67;;;5.60;99.90;;;;;;5098376;28;20292;-72
2024/03/13 05:22:10;;;;;;;28.67;13.13;;;5.60;99.90;;;;;;5110994;28;20188;-72
2024/03/13 05:25:01;;;;;;;29.17;13.03;;;5.50;99.90;;;;;;5111047;28;20202;-72
2024/03/13 05:27:49;;;;;;;27.83;12.93;;;5.50;99.90;;;;;;5111935;28;20293;-73
2024/03/13 05:30:37;;;;;;;27.00;12.97;;;5.50;99.90;;;;;;5109991;28;20282;-72
2024/03/13 05:33:25;;;;;;;27.07;13.27;;;5.40;99.90;;;;;;5110790;28;20651;-73
2024/03/13 05:36:13;;;;;;;29.70;13.30;;;5.40;99.90;;;;;;5110526;28;20320;-72
2024/03/13 05:39:00;;;;;;;31.63;14.00;;;5.40;99.90;;;;;;5096422;28;20231;-72
2024/03/13 05:41:47;;;;;;;24.80;12.80;;;5.40;99.90;;;;;;5111078;28;20679;-72
2024/03/13 05:44:35;;;;;;;26.23;13.37;;;5.40;99.90;;;;;;5098973;28;20226;-70
2024/03/13 05:47:22;;;;;;;25.43;13.43;;;5.40;99.90;;;;;;5110233;28;20197;-72
2024/03/13 05:50:10;;;;;;;31.27;13.43;;;5.40;99.90;;;;;;5110195;28;20229;-72
2024/03/13 05:52:57;;;;;;;27.53;13.97;;;5.40;99.90;;;;;;5111161;28;20641;-72
2024/03/13 05:55:45;;;;;;;29.57;13.60;;;5.40;99.90;;;;;;5097482;28;20205;-72
2024/03/13 05:58:33;;;;;;;26.57;13.77;;;5.40;99.90;;;;;;5110521;28;20217;-72
2024/03/13 06:01:26;;;;;;;37.10;14.63;;;5.40;99.90;;;;;;5110394;28;20238;-72
2024/03/13 06:04:16;;;;;;;26.63;13.27;;;5.40;99.90;;;;;;5111151;28;20248;-72
2024/03/13 06:07:05;;;;;;;26.80;13.33;;;5.40;99.90;;;;;;5096140;28;20208;-72
2024/03/13 06:09:53;;;;;;;31.43;13.80;;;5.40;99.90;;;;;;5098386;28;20189;-72
2024/03/13 06:12:40;;;;;;;26.17;13.07;;;5.40;99.90;;;;;;5110647;28;20196;-72
2024/03/13 06:15:29;;;;;;;29.57;14.40;;;5.40;99.90;;;;;;5110487;28;20538;-72
2024/03/13 06:18:18;;;;;;;31.83;14.80;;;5.40;99.90;;;;;;5110133;28;20222;-72
2024/03/13 06:21:07;;;;;;;26.20;13.43;;;5.40;99.90;;;;;;5096082;28;20204;-73
2024/03/13 06:24:00;;;;;;;33.03;15.50;;;5.40;99.90;;;;;;5109876;28;20203;-72
2024/03/13 06:26:49;;;;;;;35.97;14.50;;;5.40;99.90;;;;;;5096009;28;20276;-72
2024/03/13 06:29:57;;;;;;;27.57;13.33;;;5.40;99.90;;;;;;5110896;28;20223;-72
2024/03/13 06:32:45;;;;;;;29.17;14.30;;;5.40;99.90;;;;;;5110796;28;20190;-72
2024/03/13 06:35:33;;;;;;;31.17;14.90;;;5.50;99.90;;;;;;5109963;28;20239;-72
2024/03/13 06:38:20;;;;;;;30.87;14.97;;;5.50;99.90;;;;;;5109716;28;20739;-72
2024/03/13 06:41:10;;;;;;;27.50;14.03;;;5.50;99.90;;;;;;5110377;28;20190;-72
2024/03/13 06:43:57;;;;;;;28.33;13.73;;;5.50;99.90;;;;;;5113397;28;20726;-72
2024/03/13 06:46:45;;;;;;;29.30;14.57;;;5.50;99.90;;;;;;5114408;28;20217;-72
2024/03/13 06:49:33;;;;;;;35.53;16.20;;;5.50;99.90;;;;;;5099309;28;20747;-72
2024/03/13 06:52:20;;;;;;;31.70;15.13;;;5.50;99.90;;;;;;5099533;28;20200;-72
2024/03/13 06:55:08;;;;;;;30.70;14.83;;;5.50;99.90;;;;;;5113366;28;20194;-72
2024/03/13 06:57:55;;;;;;;32.23;14.97;;;5.50;99.90;;;;;;5113104;28;20386;-72
2024/03/13 07:00:43;;;;;;;32.77;15.37;;;5.50;99.90;;;;;;5114809;28;20664;-72
2024/03/13 07:03:30;;;;;;;32.73;15.43;;;5.60;99.90;;;;;;5114298;28;20714;-72
2024/03/13 07:06:18;;;;;;;28.63;14.43;;;5.60;99.90;;;;;;5113514;28;20194;-72
2024/03/13 07:09:07;;;;;;;31.00;14.37;;;5.60;99.90;;;;;;5100381;28;20200;-73
2024/03/13 07:11:54;;;;;;;32.10;15.47;;;5.50;99.90;;;;;;5113052;28;20198;-73
2024/03/13 07:14:45;;;;;;;33.03;15.77;;;5.60;99.90;;;;;;5099267;28;20284;-73
2024/03/13 07:17:32;;;;;;;33.57;15.60;;;5.60;99.90;;;;;;5113409;28;20203;-73
2024/03/13 07:20:20;;;;;;;32.43;15.33;;;5.60;99.90;;;;;;5112561;28;20209;-73
2024/03/13 07:23:12;;;;;;;29.57;14.67;;;5.50;99.90;;;;;;5099909;28;20215;-73
2024/03/13 07:26:00;;;;;;;31.93;14.70;;;5.50;99.90;;;;;;5113004;28;20213;-73
2024/03/13 07:28:48;;;;;;;29.80;14.50;;;5.60;99.90;;;;;;5112319;28;20214;-72
2024/03/13 07:31:39;;;;;;;29.87;14.70;;;5.60;99.90;;;;;;5098697;28;20200;-73
2024/03/13 07:34:27;;;;;;;30.93;15.20;;;5.70;99.90;;;;;;5111900;28;20211;-73
2024/03/13 07:37:14;;;;;;;28.00;14.17;;;5.70;99.90;;;;;;5112531;28;20181;-73
2024/03/13 07:40:03;;;;;;;30.77;14.40;;;5.70;99.90;;;;;;5114290;28;20261;-72
2024/03/13 07:42:51;;;;;;;28.47;14.53;;;5.70;99.90;;;;;;5112460;28;20194;-73
2024/03/13 07:45:42;;;;;;;28.67;14.43;;;5.60;99.90;;;;;;5112153;28;20196;-73
2024/03/13 07:48:30;;;;;;;27.57;13.83;;;5.60;99.90;;;;;;5112689;28;20286;-73
2024/03/13 07:51:17;;;;;;;28.30;13.17;;;5.60;99.90;;;;;;5112787;28;20241;-73
2024/03/13 07:54:04;;;;;;;24.93;13.37;;;5.70;99.90;;;;;;5098126;28;20191;-72
2024/03/13 07:56:52;;;;;;;24.60;12.67;;;5.60;99.90;;;;;;5112204;28;20190;-73
2024/03/13 07:59:45;;;;;;;24.33;13.83;;;5.60;99.90;;;;;;5111718;28;20215;-72
2024/03/13 08:02:32;;;;;;;26.40;13.10;;;5.60;99.90;;;;;;5112585;28;20663;-73
2024/03/13 08:05:20;;;;;;;24.30;13.77;;;5.70;99.90;;;;;;5112001;28;20241;-72
2024/03/13 08:08:07;;;;;;;25.40;13.43;;;5.70;99.90;;;;;;5112342;28;20668;-73
2024/03/13 08:11:11;;;;;;;28.63;13.83;;;5.70;99.90;;;;;;5112929;28;20621;-72
2024/03/13 08:14:16;;;;;;;25.40;13.53;;;5.80;99.90;;;;;;5100487;28;20187;-71
2024/03/13 08:17:21;;;;;;;26.03;13.77;;;5.80;99.90;;;;;;5113058;28;20176;-71
2024/03/13 08:20:26;;;;;;;23.67;13.37;;;5.90;99.90;;;;;;5112541;28;20219;-71
2024/03/13 08:23:30;;;;;;;27.60;13.47;;;5.90;99.90;;;;;;5112753;28;20220;-71
2024/03/13 08:26:35;;;;;;;23.50;13.00;;;5.90;99.90;;;;;;5100587;28;20567;-72
2024/03/13 08:29:40;;;;;;;22.80;13.70;;;6.00;99.90;;;;;;5112511;28;20181;-73
2024/03/13 08:32:48;;;;;;;26.63;13.83;;;5.90;99.90;;;;;;5112529;28;20178;-73
2024/03/13 08:35:55;;;;;;;28.83;14.50;;;5.90;99.90;;;;;;5112331;28;20224;-72
2024/03/13 08:39:00;;;;;;;26.90;14.00;;;5.80;99.90;;;;;;5112262;28;20210;-72
2024/03/13 08:42:06;;;;;;;28.17;14.30;;;5.90;99.90;;;;;;5099917;28;20541;-73
2024/03/13 08:45:13;;;;;;;25.17;13.87;;;5.90;99.90;;;;;;5112495;28;20199;-73
2024/03/13 08:48:18;;;;;;;30.57;15.43;;;5.90;99.90;;;;;;5112119;28;20171;-73
2024/03/13 08:51:25;;;;;;;27.60;14.90;;;6.00;99.90;;;;;;5111948;28;20187;-72
2024/03/13 08:54:30;;;;;;;27.07;14.13;;;6.00;99.90;;;;;;5112104;28;20182;-73
2024/03/13 08:57:34;;;;;;;28.37;13.77;;;5.90;99.90;;;;;;5111920;28;20179;-73
2024/03/13 09:00:39;;;;;;;28.60;14.50;;;5.90;99.90;;;;;;5100762;28;20562;-73
2024/03/13 09:03:43;;;;;;;26.33;13.50;;;6.20;99.90;;;;;;5111901;28;20203;-73
2024/03/13 09:06:49;;;;;;;28.10;13.83;;;6.00;99.90;;;;;;5111330;28;20175;-73
2024/03/13 09:09:39;;;;;;;29.40;13.77;;;6.00;99.90;;;;;;5096340;28;20269;-72
2024/03/13 09:12:27;;;;;;;28.63;13.73;;;6.10;99.90;;;;;;5110326;28;20194;-73
2024/03/13 09:15:15;;;;;;;26.50;13.30;;;6.10;99.90;;;;;;5096847;28;20205;-72
2024/03/13 09:18:03;;;;;;;24.53;13.53;;;6.10;99.90;;;;;;5111477;28;20611;-73
2024/03/13 09:20:50;;;;;;;29.70;14.10;;;6.10;99.90;;;;;;5111293;28;20537;-73
2024/03/13 09:23:38;;;;;;;25.70;13.13;;;6.10;99.90;;;;;;5110986;28;20235;-73
2024/03/13 09:26:26;;;;;;;23.93;12.97;;;6.10;99.90;;;;;;5096765;28;20203;-73
2024/03/13 09:29:14;;;;;;;23.53;12.33;;;6.10;99.90;;;;;;5110799;28;20190;-73
2024/03/13 09:32:02;;;;;;;21.57;11.67;;;6.10;99.90;;;;;;5110679;28;20642;-73
2024/03/13 09:34:50;;;;;;;24.70;12.23;;;6.00;99.90;;;;;;5110329;28;20231;-73
2024/03/13 09:37:38;;;;;;;23.03;12.87;;;6.00;99.90;;;;;;5110074;28;20199;-73
2024/03/13 09:40:25;;;;;;;25.60;13.23;;;6.00;99.90;;;;;;5111744;28;20235;-73
2024/03/13 09:43:15;;;;;;;25.73;13.40;;;6.00;99.90;;;;;;5110127;28;20197;-73
2024/03/13 09:46:07;;;;;;;27.43;14.23;;;6.00;99.90;;;;;;5111590;28;20569;-73
2024/03/13 09:48:57;;;;;;;29.97;14.60;;;6.00;99.90;;;;;;5096302;28;20293;-73
2024/03/13 09:51:47;;;;;;;28.23;13.77;;;6.00;99.90;;;;;;5097849;28;20246;-73
2024/03/13 09:54:35;;;;;;;24.83;14.00;;;6.10;99.90;;;;;;5098076;28;20551;-73
2024/03/13 09:57:25;;;;;;;26.47;13.93;;;6.10;99.90;;;;;;5110717;28;20232;-73
2024/03/13 10:00:19;;;;;;;29.13;14.43;;;6.20;99.90;;;;;;5111419;28;20258;-73
2024/03/13 10:03:21;;;;;;;24.93;13.30;;;6.20;99.90;;;;;;5098196;28;20200;-73
2024/03/13 10:06:14;;;;;;;23.90;13.33;;;6.30;99.90;;;;;;5095983;28;20187;-73
2024/03/13 10:09:11;;;;;;;30.00;13.97;;;6.30;99.90;;;;;;5110226;28;20271;-73
2024/03/13 10:12:02;;;;;;;29.40;14.63;;;6.30;99.90;;;;;;5096779;28;20185;-73
2024/03/13 10:14:52;;;;;;;29.07;14.20;;;6.50;99.90;;;;;;5110723;28;20204;-73
2024/03/13 10:17:49;;;;;;;26.93;13.47;;;6.40;99.90;;;;;;5098193;28;20207;-73
2024/03/13 10:20:50;;;;;;;25.27;13.30;;;6.40;99.90;;;;;;5100344;28;20291;-73
2024/03/13 10:23:42;;;;;;;26.53;12.93;;;6.30;99.90;;;;;;5114137;28;20196;-73
2024/03/13 10:26:31;;;;;;;26.23;13.30;;;6.40;99.90;;;;;;5114298;28;20188;-73
2024/03/13 10:29:19;;;;;;;26.20;13.37;;;6.40;99.90;;;;;;5114498;28;20208;-73
2024/03/13 10:32:09;;;;;;;22.90;12.83;;;6.40;99.90;;;;;;5113918;28;20279;-73
2024/03/13 10:34:56;;;;;;;24.87;13.30;;;6.40;99.90;;;;;;5113700;28;20234;-73
2024/03/13 10:37:47;;;;;;;27.47;13.00;;;6.50;99.90;;;;;;5114406;28;20196;-73
2024/03/13 10:40:35;;;;;;;22.83;12.50;;;6.60;99.90;;;;;;5099654;28;20238;-73
2024/03/13 10:43:22;;;;;;;24.60;13.33;;;6.70;99.90;;;;;;5114040;28;20189;-72
2024/03/13 10:46:11;;;;;;;23.93;12.97;;;6.80;99.90;;;;;;5098780;28;20192;-73
2024/03/13 10:49:00;;;;;;;23.00;12.93;;;6.90;99.90;;;;;;5115693;28;20705;-73
2024/03/13 10:51:47;;;;;;;24.97;14.37;;;6.90;99.90;;;;;;5113485;28;20197;-74
2024/03/13 10:54:35;;;;;;;27.40;15.17;;;7.00;99.90;;;;;;5114325;28;20200;-73
2024/03/13 10:57:23;;;;;;;28.30;14.57;;;7.00;99.90;;;;;;5114390;28;20736;-73
2024/03/13 11:00:11;;;;;;;26.33;14.20;;;7.10;99.90;;;;;;5112919;28;20223;-73
2024/03/13 11:03:01;;;;;;;25.20;13.60;;;7.20;99.90;;;;;;5113628;28;20195;-73
2024/03/13 11:05:50;;;;;;;28.87;14.40;;;7.30;99.90;;;;;;5113670;28;20199;-72
2024/03/13 11:08:38;;;;;;;26.13;14.13;;;7.40;99.90;;;;;;5113680;28;20193;-73
2024/03/13 11:11:26;;;;;;;27.50;14.30;;;7.40;99.90;;;;;;5112919;28;20202;-72
2024/03/13 11:14:17;;;;;;;25.63;14.23;;;7.40;99.90;;;;;;5113331;28;20278;-73
2024/03/13 11:17:07;;;;;;;27.60;14.23;;;7.50;99.90;;;;;;5113576;28;20203;-73
2024/03/13 11:20:07;;;;;;;24.70;13.47;;;7.70;99.90;;;;;;5113264;28;20228;-73
2024/03/13 11:23:20;;;;;;;26.37;14.50;;;7.50;99.90;;;;;;5100021;28;20223;-73
2024/03/13 11:26:11;;;;;;;25.23;13.87;;;7.50;99.90;;;;;;5113966;28;20546;-73
2024/03/13 11:29:02;;;;;;;25.23;14.17;;;7.50;99.90;;;;;;5098423;28;20268;-73
2024/03/13 11:31:52;;;;;;;25.07;13.67;;;7.50;99.90;;;;;;5112293;28;20196;-72
2024/03/13 11:34:42;;;;;;;26.47;13.63;;;7.40;99.90;;;;;;5099062;28;20602;-73
2024/03/13 11:37:30;;;;;;;22.90;13.57;;;7.50;99.90;;;;;;5113638;28;20194;-73
2024/03/13 11:40:18;;;;;;;27.63;15.00;;;7.40;99.90;;;;;;5112989;28;20222;-73
2024/03/13 11:43:05;;;;;;;24.70;13.10;;;7.40;99.90;;;;;;5099097;28;20200;-73
2024/03/13 11:45:59;;;;;;;26.00;12.90;;;7.40;99.90;;;;;;5098284;28;20193;-72
2024/03/13 11:48:47;;;;;;;23.17;12.17;;;7.40;99.90;;;;;;5098346;28;20216;-73
2024/03/13 11:51:36;;;;;;;23.43;12.27;;;7.50;99.90;;;;;;5100070;28;20681;-73
2024/03/13 11:54:46;;;;;;;22.47;12.33;;;7.40;99.90;;;;;;5113365;28;20200;-73
2024/03/13 12:01:26;;;;;;;23.83;12.43;;;7.30;99.90;;;;;;5112583;28;20648;-73
2024/03/13 12:04:20;;;;;;;24.63;12.93;;;7.30;99.90;;;;;;5098665;28;20684;-73
2024/03/13 12:07:17;;;;;;;25.73;13.40;;;7.20;99.90;;;;;;5112476;28;20210;-73
2024/03/13 12:10:05;;;;;;;24.70;12.90;;;7.20;99.90;;;;;;5099933;28;20288;-73
2024/03/13 12:13:23;;;;;;;24.47;13.20;;;7.20;99.90;;;;;;5112263;28;20204;-73
2024/03/13 12:16:17;;;;;;;26.57;14.07;;;7.10;99.90;;;;;;5111948;28;20324;-73
2024/03/13 12:19:26;;;;;;;29.00;15.63;;;7.10;99.90;;;;;;5099069;28;20766;-73
2024/03/13 12:22:17;;;;;;;31.33;15.63;;;7.00;99.90;;;;;;5097458;28;20200;-73
2024/03/13 12:25:29;;;;;;;30.00;15.83;;;6.90;99.90;;;;;;5111895;28;20198;-73
2024/03/13 12:28:22;;;;;;;34.40;17.77;;;6.90;99.90;;;;;;5113786;28;20206;-73
2024/03/13 12:31:17;;;;;;;37.47;19.17;;;6.80;99.90;;;;;;5111899;28;20203;-73
2024/03/13 12:34:06;;;;;;;39.87;19.10;;;6.70;99.90;;;;;;5112102;28;20231;-73
2024/03/13 12:36:53;;;;;;;36.13;18.50;;;6.60;99.90;;;;;;5111855;28;20191;-73
2024/03/13 12:39:41;;;;;;;39.30;18.17;;;6.60;99.90;;;;;;5111741;28;20356;-73
2024/03/13 12:42:29;;;;;;;36.97;18.23;;;6.70;99.90;;;;;;5111267;28;20684;-73
2024/03/13 12:45:17;;;;;;;37.97;17.67;;;6.70;99.90;;;;;;5112092;28;20293;-72
2024/03/13 12:48:09;;;;;;;37.13;18.43;;;6.70;99.90;;;;;;5097855;28;20549;-73
2024/03/13 12:50:58;;;;;;;37.57;18.23;;;6.80;99.90;;;;;;5110762;28;20271;-73
2024/03/13 12:53:45;;;;;;;41.17;19.10;;;6.80;99.90;;;;;;5096604;28;20196;-74
2024/03/13 12:56:33;;;;;;;38.63;18.73;;;6.80;99.90;;;;;;5111751;28;20196;-73
2024/03/13 12:59:21;;;;;;;39.57;18.37;;;6.70;99.90;;;;;;5111540;28;20223;-73
2024/03/13 13:02:13;;;;;;;38.30;18.77;;;6.80;99.90;;;;;;5111220;28;20611;-73
2024/03/13 13:05:00;;;;;;;36.50;18.73;;;6.70;99.90;;;;;;5111387;28;20214;-73
2024/03/13 13:08:09;;;;;;;38.63;19.03;;;6.70;99.90;;;;;;5111187;28;20196;-73
2024/03/13 13:10:57;;;;;;;39.83;20.37;;;6.70;99.90;;;;;;5111472;28;20276;-73
2024/03/13 13:13:46;;;;;;;39.77;19.40;;;6.70;99.90;;;;;;5096215;28;20191;-74
2024/03/13 13:16:34;;;;;;;41.93;19.93;;;6.60;99.90;;;;;;5110830;28;20273;-73
2024/03/13 13:19:21;;;;;;;38.77;19.53;;;6.70;99.90;;;;;;5110984;28;20219;-73
2024/03/13 13:22:08;;;;;;;43.47;20.37;;;6.70;99.90;;;;;;5111218;28;20195;-72
2024/03/13 13:24:56;;;;;;;40.57;19.67;;;6.70;99.90;;;;;;5110391;28;20697;-73
2024/03/13 13:27:49;;;;;;;37.80;18.20;;;6.60;99.90;;;;;;5111805;28;20194;-73
2024/03/13 13:30:40;;;;;;;37.13;17.43;;;6.60;99.90;;;;;;5096624;28;20193;-73
2024/03/13 13:33:28;;;;;;;38.30;18.17;;;6.50;99.90;;;;;;5110502;28;20233;-73
2024/03/13 13:36:18;;;;;;;34.83;18.07;;;6.50;99.90;;;;;;5111324;28;20587;-73
2024/03/13 13:39:24;;;;;;;34.37;17.67;;;6.60;99.90;;;;;;5096660;28;20216;-73
2024/03/13 13:42:12;;;;;;;35.00;17.67;;;6.60;99.90;;;;;;5111044;28;20203;-73
2024/03/13 13:44:59;;;;;;;33.90;17.53;;;6.60;99.90;;;;;;5097709;28;20277;-73
2024/03/13 13:47:48;;;;;;;35.67;16.57;;;6.60;99.90;;;;;;5097577;28;20194;-73
2024/03/13 13:50:35;;;;;;;32.03;16.10;;;6.60;99.90;;;;;;5097489;28;20252;-73
2024/03/13 13:53:23;;;;;;;33.50;15.60;;;6.50;99.90;;;;;;5114085;28;20204;-73
2024/03/13 13:56:10;;;;;;;32.23;15.70;;;6.50;99.90;;;;;;5115654;28;20207;-73
2024/03/13 13:58:57;;;;;;;30.50;15.33;;;6.50;99.90;;;;;;5115099;28;20206;-73
2024/03/13 14:01:45;;;;;;;30.70;15.50;;;6.50;99.90;;;;;;5100285;28;20201;-73
2024/03/13 14:04:32;;;;;;;31.73;16.00;;;6.40;99.90;;;;;;5114231;28;20210;-73
2024/03/13 14:07:19;;;;;;;30.53;15.40;;;6.40;99.90;;;;;;5114481;28;20595;-73
2024/03/13 14:10:10;;;;;;;32.17;17.40;;;6.40;99.90;;;;;;5113980;28;20339;-73
2024/03/13 14:13:00;;;;;;;32.93;17.60;;;6.30;99.90;;;;;;5115370;28;20233;-73
2024/03/13 14:15:49;;;;;;;31.60;18.13;;;6.30;99.90;;;;;;5116905;28;20192;-72
2024/03/13 14:18:36;;;;;;;32.83;19.53;;;6.30;99.90;;;;;;5100672;28;20203;-74
2024/03/13 14:21:24;;;;;;;34.63;18.90;;;6.30;99.90;;;;;;5115036;28;20194;-73
2024/03/13 14:24:12;;;;;;;33.03;18.23;;;6.20;99.90;;;;;;5114746;28;20745;-73
2024/03/13 14:26:59;;;;;;;31.63;17.80;;;6.20;99.90;;;;;;5100025;28;20203;-73
2024/03/13 14:29:47;;;;;;;32.33;17.47;;;6.10;99.90;;;;;;5113716;28;20229;-73
2024/03/13 14:32:35;;;;;;;32.53;18.00;;;6.10;99.90;;;;;;5115587;28;20196;-73
2024/03/13 14:35:22;;;;;;;31.40;17.67;;;6.10;99.90;;;;;;5114675;28;20241;-73
2024/03/13 14:38:10;;;;;;;33.10;17.83;;;6.00;99.90;;;;;;5100981;28;20198;-73
2024/03/13 14:40:58;;;;;;;33.13;18.03;;;6.10;99.90;;;;;;5114251;28;20228;-73
2024/03/13 14:43:46;;;;;;;32.33;17.47;;;6.10;99.90;;;;;;5114013;28;20185;-73
2024/03/13 14:46:35;;;;;;;33.67;18.13;;;6.00;99.90;;;;;;5114474;28;20203;-73
2024/03/13 14:49:23;;;;;;;30.63;17.17;;;6.00;99.90;;;;;;5114044;28;20213;-73
2024/03/13 14:52:10;;;;;;;33.10;18.23;;;6.00;99.90;;;;;;5113824;28;20201;-73
2024/03/13 14:54:57;;;;;;;32.60;18.17;;;6.00;99.90;;;;;;5099936;28;20210;-73
2024/03/13 14:57:47;;;;;;;32.90;17.60;;;5.90;99.90;;;;;;5113801;28;20189;-73
2024/03/13 15:00:36;;;;;;;31.80;17.63;;;5.80;99.90;;;;;;5099833;28;20217;-73
2024/03/13 15:03:29;;;;;;;32.93;17.63;;;5.80;99.90;;;;;;5097900;28;20676;-72
2024/03/13 15:06:16;;;;;;;32.43;18.20;;;5.80;99.90;;;;;;5100365;28;20241;-73